Terminal Aerodrome Forecast
Issued by NWS Medford, OR

Home | Current Version | Previous Version | Text Only | Print | Product List | Glossary On
Versions: 1 2 3 4 5 6 7 8 9 10 11 12 13 14 15
000
FTUS46 KMFR 241700
TAFMFR
TAF
KMFR 241720Z 2418/2518 VRB03KT P6SM -SHRA SCT020 OVC050
     FM242200 30007KT P6SM -SHRA SCT025 BKN050
     FM250300 VRB03KT P6SM VCSH SCT030 BKN050
     FM250800 00000KT P6SM -SHRA OVC030=

USA.gov is the U.S. government's official web portal to all federal, state and local government web resources and services.